Recent Crash Information (Download as a .CSV file)

Last updated: July 23, 2019 01:50:02

CFS # Reported Nature Address
19129070 07/22/2019 6:59:41PM Crash Minor S 24TH ST & SAYLES BLVD
19128829 07/22/2019 12:32:02PM Crash Minor 910 PRESIDIO DR
19128830 07/22/2019 12:29:11PM Crash Minor 1900 PINE ST; MAIN ENTRANCE PLOT; HMC
19128796 07/22/2019 11:29:08AM Crash Minor 4617 EBBETS DR
19128782 07/22/2019 11:19:24AM Crash Minor 4602 EBBETS DR
19128784 07/22/2019 11:18:03AM Crash HR no Inj 2665 BUFFALO GAP RD; MR GATTIS
19128745 07/22/2019 10:44:43AM Crash HR no Inj 2926 S 27TH ST; DOLLAR GENERAL
19128412 07/21/2019 6:41:12PM Crash Minor 3131 S DANVILLE DR; 7/11 plot
19128346 07/21/2019 4:50:25PM Crash HR no Inj 1650 HWY 351; walmart
19128272 07/21/2019 2:22:42PM Crash Minor 4350 SOUTHWEST DR; walmart plot
19128260 07/21/2019 2:02:23PM Crash Minor S 7TH ST & S PIONEER DR
19128249 07/21/2019 1:35:42PM Crash Major 1501 PECAN ST
19128219 07/21/2019 12:33:21PM Crash Minor 1726 N 9TH ST
19128143 07/21/2019 9:03:39AM Crash Minor S 27TH ST & S TREADAWAY BLVD
19128120 07/21/2019 7:42:21AM Crash HR no Inj EN 23RD ST & CAMPUS CT
19127988 07/20/2019 11:48:37PM Crash Rescue 6825 W HWY 80; abilene speedway
19127819 07/20/2019 6:52:50PM Crash Minor S DANVILLE DR & SOUTHWEST DR
19127818 07/20/2019 6:50:35PM Crash Minor S DANVILLE DR & SOUTHWEST DR
19127736 07/20/2019 4:57:00PM Crash HR no Inj 6250 BUFFALO GAP RD ; WYLIE CHRISTIAN CHURCH
19127709 07/20/2019 4:19:06PM Crash HR no Inj 1924 FULTON ST
19127672 07/20/2019 3:20:14PM Crash Minor S DANVILLE DR & SOUTHWEST DR
19127657 07/20/2019 2:50:18PM Crash Minor 1650 HWY 351; WALMART PLOT
19127626 07/20/2019 1:53:32PM Crash HR no Inj 700 S DANVILLE DR
19127563 07/20/2019 12:01:02PM Crash Minor 3900 TURNER DR; plot across from casa herrera
19127505 07/20/2019 10:23:42AM Crash Minor 4374 SOUTHWEST DR; Wendy's
19127492 07/20/2019 9:41:09AM Crash Minor N 9TH ST & GRAPE ST
19127353 07/20/2019 12:00:10AM Crash HR no Inj 1941 N 15TH ST
19127331 07/19/2019 11:10:04PM Crash HR no Inj 3001 N 6TH ST APT 204
19127151 07/19/2019 6:09:15PM Crash Minor GRAPE ST & N 10TH ST
19126999 07/19/2019 2:33:18PM Crash HR no Inj 1650 HWY 351; Walmart
19126942 07/19/2019 1:25:08PM Crash Minor S 14TH ST & BARROW ST
19126929 07/19/2019 1:11:26PM Crash Minor S 14TH ST & BARROW ST
19126915 07/19/2019 12:46:48PM Crash Minor S 9TH ST & VINE ST
19126880 07/19/2019 11:40:11AM Crash Minor N 8TH ST & HICKORY ST
19126750 07/19/2019 8:16:27AM Crash Minor CEDAR ST & N 1ST ST
19126741 07/19/2019 8:04:04AM Crash Minor CORSICANA AVE & TEXAS AVE
19126736 07/19/2019 7:49:54AM Crash Minor S 14TH ST & S LEGGETT DR
19126563 07/18/2019 9:04:52PM Crash Minor 5650 MAPLE ST;lake kirby park
19126521 07/18/2019 7:46:31PM Crash Rescue MM 287 EAST I-20 HALF-M EAST FM 600
19126516 07/18/2019 7:35:29PM Crash Minor 1726 WESTMORELAND ST
19126500 07/18/2019 7:01:45PM Crash Minor 1625 HWY 351 ; WHITTEN INN
19126499 07/18/2019 6:57:10PM Crash Minor 3300 OLDHAM LN
19126437 07/18/2019 5:04:39PM Crash Minor SOUTHWEST DR & S DANVILLE DR
19126406 07/18/2019 4:25:47PM Crash Minor 6550 HWY 83 84 ; ANTILLEY INN
19126387 07/18/2019 3:57:35PM Crash Minor S 12TH ST & BARROW ST
19126310 07/18/2019 1:54:40PM Crash HR no Inj 6250 HWY 83 84; ARMC
19126292 07/18/2019 1:25:14PM Crash Minor PINE ST & N 1ST ST
19126270 07/18/2019 12:47:35PM Crash HR no Inj 797 RIVER BEND APT A
19126252 07/18/2019 12:21:46PM Crash Minor 600 S LEGGETT DR
19126203 07/18/2019 11:13:19AM Crash HR no Inj 2800 S 1ST ST
19126111 07/18/2019 8:40:46AM Crash Minor S 1ST ST & VICTORIA ST
19126107 07/18/2019 8:37:38AM Crash Minor SOUTHWEST DR & BROOKHOLLOW DR; on brookhollow
19125962 07/17/2019 10:39:13PM Crash Minor 3602 N 1ST ST; MCDONALDS
19125919 07/17/2019 9:08:07PM Crash HRINJ IVY LN & BRIDGE AVE
19125911 07/17/2019 8:47:48PM Crash Minor 4150 S DANVILLE DR; flipping egg
19125906 07/17/2019 8:39:34PM Crash Minor BUFFALO GAP RD / S DANVILLE DR
19125797 07/17/2019 5:45:09PM Crash HR no Inj MM 286 EAST I-20 PINE ST EXIT
19125750 07/17/2019 4:42:39PM Crash Minor I-20 / PINE EASTBOUND; U:0
19125589 07/17/2019 1:01:44PM Crash HR no Inj S 1ST ST & SAYLES BLVD; topline convenient store
19125481 07/17/2019 9:59:12AM Crash Minor COCKERELL DR & SANDY ST
19125422 07/17/2019 8:05:14AM Crash Minor 6100 ARNOLD BLVD; Road to Base Gate
19125415 07/17/2019 7:53:43AM Crash Minor 1200 S 6TH ST
19125413 07/17/2019 7:49:17AM Crash Minor 1650 HWY 351; Walmart